sensor_id;sensor_type;location;lat;lon;timestamp;P1;durP1;ratioP1;P2;durP2;ratioP2
46290;SDS011;32023;44.444;26.006;2024-03-17T00:00:48;46.25;;;26.10;;
46290;SDS011;32023;44.444;26.006;2024-03-17T00:03:15;46.88;;;28.67;;
46290;SDS011;32023;44.444;26.006;2024-03-17T00:05:42;42.22;;;26.92;;
46290;SDS011;32023;44.444;26.006;2024-03-17T00:08:08;39.67;;;23.90;;
46290;SDS011;32023;44.444;26.006;2024-03-17T00:10:37;38.20;;;24.90;;
46290;SDS011;32023;44.444;26.006;2024-03-17T00:13:03;43.55;;;26.45;;
46290;SDS011;32023;44.444;26.006;2024-03-17T00:18:53;41.67;;;24.13;;
46290;SDS011;32023;44.444;26.006;2024-03-17T00:21:22;39.63;;;24.38;;
46290;SDS011;32023;44.444;26.006;2024-03-17T00:23:51;45.47;;;25.75;;
46290;SDS011;32023;44.444;26.006;2024-03-17T00:26:18;42.85;;;26.52;;
46290;SDS011;32023;44.444;26.006;2024-03-17T00:28:47;49.78;;;28.58;;
46290;SDS011;32023;44.444;26.006;2024-03-17T00:34:39;52.75;;;32.13;;
46290;SDS011;32023;44.444;26.006;2024-03-17T00:44:58;55.88;;;32.58;;
46290;SDS011;32023;44.444;26.006;2024-03-17T00:47:25;57.95;;;34.25;;
46290;SDS011;32023;44.444;26.006;2024-03-17T00:49:51;53.47;;;32.92;;
46290;SDS011;32023;44.444;26.006;2024-03-17T01:10:16;73.28;;;39.55;;
46290;SDS011;32023;44.444;26.006;2024-03-17T01:18:53;68.15;;;38.53;;
46290;SDS011;32023;44.444;26.006;2024-03-17T01:21:22;66.75;;;38.33;;
46290;SDS011;32023;44.444;26.006;2024-03-17T01:23:49;69.22;;;39.35;;
46290;SDS011;32023;44.444;26.006;2024-03-17T01:29:42;59.25;;;34.85;;
46290;SDS011;32023;44.444;26.006;2024-03-17T01:32:08;58.17;;;34.90;;
46290;SDS011;32023;44.444;26.006;2024-03-17T01:34:36;66.80;;;37.80;;
46290;SDS011;32023;44.444;26.006;2024-03-17T01:37:03;66.97;;;36.15;;
46290;SDS011;32023;44.444;26.006;2024-03-17T01:42:25;57.78;;;34.88;;
46290;SDS011;32023;44.444;26.006;2024-03-17T01:44:54;58.65;;;36.15;;
46290;SDS011;32023;44.444;26.006;2024-03-17T01:47:30;60.97;;;35.70;;
46290;SDS011;32023;44.444;26.006;2024-03-17T01:50:04;61.90;;;35.92;;
46290;SDS011;32023;44.444;26.006;2024-03-17T01:52:33;61.28;;;36.42;;
46290;SDS011;32023;44.444;26.006;2024-03-17T01:55:02;55.88;;;36.20;;
46290;SDS011;32023;44.444;26.006;2024-03-17T01:57:36;58.25;;;35.05;;
46290;SDS011;32023;44.444;26.006;2024-03-17T02:00:03;58.10;;;34.85;;
46290;SDS011;32023;44.444;26.006;2024-03-17T02:02:33;59.50;;;35.70;;
46290;SDS011;32023;44.444;26.006;2024-03-17T02:05:01;60.17;;;34.90;;
46290;SDS011;32023;44.444;26.006;2024-03-17T02:07:31;57.08;;;34.60;;
46290;SDS011;32023;44.444;26.006;2024-03-17T02:09:58;60.58;;;36.63;;
46290;SDS011;32023;44.444;26.006;2024-03-17T02:12:27;62.20;;;35.83;;
46290;SDS011;32023;44.444;26.006;2024-03-17T02:14:58;62.60;;;35.65;;
46290;SDS011;32023;44.444;26.006;2024-03-17T02:17:25;64.35;;;35.63;;
46290;SDS011;32023;44.444;26.006;2024-03-17T02:19:54;56.53;;;34.60;;
46290;SDS011;32023;44.444;26.006;2024-03-17T02:22:21;59.65;;;34.88;;
46290;SDS011;32023;44.444;26.006;2024-03-17T02:24:47;59.88;;;35.72;;
46290;SDS011;32023;44.444;26.006;2024-03-17T02:27:14;60.42;;;34.58;;
46290;SDS011;32023;44.444;26.006;2024-03-17T02:29:40;59.17;;;35.88;;
46290;SDS011;32023;44.444;26.006;2024-03-17T02:32:08;59.85;;;36.20;;
46290;SDS011;32023;44.444;26.006;2024-03-17T02:34:37;66.43;;;37.58;;
46290;SDS011;32023;44.444;26.006;2024-03-17T02:37:04;60.42;;;36.08;;
46290;SDS011;32023;44.444;26.006;2024-03-17T02:39:32;60.20;;;36.38;;
46290;SDS011;32023;44.444;26.006;2024-03-17T02:42:03;58.67;;;35.58;;
46290;SDS011;32023;44.444;26.006;2024-03-17T02:44:30;62.47;;;36.20;;
46290;SDS011;32023;44.444;26.006;2024-03-17T02:47:01;64.03;;;37.72;;
46290;SDS011;32023;44.444;26.006;2024-03-17T02:49:39;59.13;;;36.17;;
46290;SDS011;32023;44.444;26.006;2024-03-17T02:52:11;58.30;;;35.25;;
46290;SDS011;32023;44.444;26.006;2024-03-17T02:54:37;62.83;;;37.08;;
46290;SDS011;32023;44.444;26.006;2024-03-17T02:57:05;65.78;;;38.95;;
46290;SDS011;32023;44.444;26.006;2024-03-17T02:59:32;67.18;;;38.58;;
46290;SDS011;32023;44.444;26.006;2024-03-17T03:02:01;67.97;;;38.58;;
46290;SDS011;32023;44.444;26.006;2024-03-17T03:04:37;56.78;;;36.88;;
46290;SDS011;32023;44.444;26.006;2024-03-17T03:07:03;65.28;;;38.35;;
46290;SDS011;32023;44.444;26.006;2024-03-17T03:09:30;65.40;;;37.15;;
46290;SDS011;32023;44.444;26.006;2024-03-17T03:11:57;65.25;;;38.42;;
46290;SDS011;32023;44.444;26.006;2024-03-17T03:14:30;58.40;;;35.05;;
46290;SDS011;32023;44.444;26.006;2024-03-17T03:16:57;62.85;;;36.20;;
46290;SDS011;32023;44.444;26.006;2024-03-17T03:19:26;58.45;;;35.40;;
46290;SDS011;32023;44.444;26.006;2024-03-17T03:21:53;63.28;;;38.28;;
46290;SDS011;32023;44.444;26.006;2024-03-17T03:24:19;65.85;;;37.97;;
46290;SDS011;32023;44.444;26.006;2024-03-17T03:26:47;64.32;;;37.25;;
46290;SDS011;32023;44.444;26.006;2024-03-17T03:29:16;62.53;;;36.28;;
46290;SDS011;32023;44.444;26.006;2024-03-17T03:31:43;62.88;;;36.13;;
46290;SDS011;32023;44.444;26.006;2024-03-17T03:34:09;64.13;;;38.00;;
46290;SDS011;32023;44.444;26.006;2024-03-17T03:36:37;61.30;;;37.03;;
46290;SDS011;32023;44.444;26.006;2024-03-17T03:39:04;58.63;;;35.92;;
46290;SDS011;32023;44.444;26.006;2024-03-17T03:41:34;67.30;;;36.33;;
46290;SDS011;32023;44.444;26.006;2024-03-17T03:44:03;56.60;;;34.85;;
46290;SDS011;32023;44.444;26.006;2024-03-17T03:46:30;61.40;;;36.67;;
46290;SDS011;32023;44.444;26.006;2024-03-17T03:49:00;69.63;;;40.38;;
46290;SDS011;32023;44.444;26.006;2024-03-17T03:51:26;66.47;;;40.97;;
46290;SDS011;32023;44.444;26.006;2024-03-17T03:53:53;76.15;;;44.85;;
46290;SDS011;32023;44.444;26.006;2024-03-17T03:56:20;72.57;;;44.50;;
46290;SDS011;32023;44.444;26.006;2024-03-17T03:58:48;71.03;;;46.20;;
46290;SDS011;32023;44.444;26.006;2024-03-17T04:01:15;73.72;;;45.33;;
46290;SDS011;32023;44.444;26.006;2024-03-17T04:03:46;77.18;;;45.35;;
46290;SDS011;32023;44.444;26.006;2024-03-17T04:06:16;75.93;;;45.80;;
46290;SDS011;32023;44.444;26.006;2024-03-17T04:08:43;75.82;;;45.85;;
46290;SDS011;32023;44.444;26.006;2024-03-17T04:11:09;81.55;;;47.55;;
46290;SDS011;32023;44.444;26.006;2024-03-17T04:13:36;78.35;;;45.97;;
46290;SDS011;32023;44.444;26.006;2024-03-17T04:16:06;77.38;;;48.38;;
46290;SDS011;32023;44.444;26.006;2024-03-17T04:18:33;81.43;;;48.22;;
46290;SDS011;32023;44.444;26.006;2024-03-17T04:21:04;77.38;;;46.33;;
46290;SDS011;32023;44.444;26.006;2024-03-17T04:23:32;76.38;;;46.00;;
46290;SDS011;32023;44.444;26.006;2024-03-17T04:26:03;74.10;;;45.15;;
46290;SDS011;32023;44.444;26.006;2024-03-17T04:28:32;69.60;;;42.38;;
46290;SDS011;32023;44.444;26.006;2024-03-17T04:31:04;74.03;;;42.63;;
46290;SDS011;32023;44.444;26.006;2024-03-17T04:33:32;72.43;;;42.47;;
46290;SDS011;32023;44.444;26.006;2024-03-17T04:35:58;72.70;;;43.58;;
46290;SDS011;32023;44.444;26.006;2024-03-17T04:38:27;70.75;;;42.22;;
46290;SDS011;32023;44.444;26.006;2024-03-17T04:40:59;79.15;;;48.90;;
46290;SDS011;32023;44.444;26.006;2024-03-17T04:43:33;82.22;;;48.70;;
46290;SDS011;32023;44.444;26.006;2024-03-17T04:46:08;79.40;;;49.53;;
46290;SDS011;32023;44.444;26.006;2024-03-17T04:48:37;86.47;;;49.10;;
46290;SDS011;32023;44.444;26.006;2024-03-17T04:51:03;82.80;;;47.70;;
46290;SDS011;32023;44.444;26.006;2024-03-17T04:53:35;70.82;;;43.22;;
46290;SDS011;32023;44.444;26.006;2024-03-17T04:56:17;72.32;;;44.47;;
46290;SDS011;32023;44.444;26.006;2024-03-17T04:58:47;72.68;;;45.05;;
46290;SDS011;32023;44.444;26.006;2024-03-17T05:01:13;80.35;;;48.80;;
46290;SDS011;32023;44.444;26.006;2024-03-17T05:03:40;86.50;;;49.55;;
46290;SDS011;32023;44.444;26.006;2024-03-17T05:06:07;78.75;;;49.20;;
46290;SDS011;32023;44.444;26.006;2024-03-17T05:08:34;85.40;;;51.55;;
46290;SDS011;32023;44.444;26.006;2024-03-17T05:11:01;80.05;;;49.90;;
46290;SDS011;32023;44.444;26.006;2024-03-17T05:16:08;81.72;;;46.80;;
46290;SDS011;32023;44.444;26.006;2024-03-17T05:18:35;71.13;;;46.35;;
46290;SDS011;32023;44.444;26.006;2024-03-17T05:21:05;71.93;;;44.58;;
46290;SDS011;32023;44.444;26.006;2024-03-17T05:23:35;74.22;;;45.28;;
46290;SDS011;32023;44.444;26.006;2024-03-17T05:26:04;73.57;;;44.67;;
46290;SDS011;32023;44.444;26.006;2024-03-17T05:28:33;75.32;;;46.17;;
46290;SDS011;32023;44.444;26.006;2024-03-17T05:31:00;75.68;;;45.53;;
46290;SDS011;32023;44.444;26.006;2024-03-17T05:33:26;68.50;;;42.80;;
46290;SDS011;32023;44.444;26.006;2024-03-17T05:35:57;72.93;;;45.35;;
46290;SDS011;32023;44.444;26.006;2024-03-17T05:38:29;64.15;;;40.35;;
46290;SDS011;32023;44.444;26.006;2024-03-17T05:40:56;64.60;;;41.53;;
46290;SDS011;32023;44.444;26.006;2024-03-17T05:43:27;76.55;;;46.05;;
46290;SDS011;32023;44.444;26.006;2024-03-17T05:46:03;69.30;;;39.45;;
46290;SDS011;32023;44.444;26.006;2024-03-17T05:48:34;59.67;;;37.95;;
46290;SDS011;32023;44.444;26.006;2024-03-17T05:51:07;63.65;;;37.85;;
46290;SDS011;32023;44.444;26.006;2024-03-17T05:53:35;59.17;;;37.90;;
46290;SDS011;32023;44.444;26.006;2024-03-17T05:56:07;68.55;;;40.70;;
46290;SDS011;32023;44.444;26.006;2024-03-17T05:58:34;62.60;;;38.53;;
46290;SDS011;32023;44.444;26.006;2024-03-17T06:01:10;56.15;;;35.78;;
46290;SDS011;32023;44.444;26.006;2024-03-17T06:06:09;62.65;;;38.90;;
46290;SDS011;32023;44.444;26.006;2024-03-17T06:08:50;61.42;;;38.58;;
46290;SDS011;32023;44.444;26.006;2024-03-17T06:11:40;62.55;;;39.10;;
46290;SDS011;32023;44.444;26.006;2024-03-17T06:14:06;54.22;;;34.72;;
46290;SDS011;32023;44.444;26.006;2024-03-17T06:16:40;57.17;;;35.40;;
46290;SDS011;32023;44.444;26.006;2024-03-17T06:19:06;53.63;;;34.22;;
46290;SDS011;32023;44.444;26.006;2024-03-17T06:21:35;50.72;;;30.67;;
46290;SDS011;32023;44.444;26.006;2024-03-17T06:24:04;55.08;;;33.92;;
46290;SDS011;32023;44.444;26.006;2024-03-17T06:26:31;55.95;;;34.08;;
46290;SDS011;32023;44.444;26.006;2024-03-17T06:29:00;52.88;;;32.80;;
46290;SDS011;32023;44.444;26.006;2024-03-17T06:31:30;48.55;;;30.02;;
46290;SDS011;32023;44.444;26.006;2024-03-17T06:33:56;47.55;;;30.65;;
46290;SDS011;32023;44.444;26.006;2024-03-17T06:36:23;46.97;;;31.42;;
46290;SDS011;32023;44.444;26.006;2024-03-17T06:38:50;49.75;;;31.23;;
46290;SDS011;32023;44.444;26.006;2024-03-17T06:41:16;48.97;;;30.58;;
46290;SDS011;32023;44.444;26.006;2024-03-17T06:43:46;51.47;;;31.98;;
46290;SDS011;32023;44.444;26.006;2024-03-17T06:46:28;57.20;;;36.03;;
46290;SDS011;32023;44.444;26.006;2024-03-17T06:48:57;53.35;;;34.35;;
46290;SDS011;32023;44.444;26.006;2024-03-17T06:51:30;56.50;;;36.42;;
46290;SDS011;32023;44.444;26.006;2024-03-17T06:53:56;56.53;;;34.17;;
46290;SDS011;32023;44.444;26.006;2024-03-17T06:56:25;46.65;;;31.13;;
46290;SDS011;32023;44.444;26.006;2024-03-17T06:58:52;45.53;;;30.25;;
46290;SDS011;32023;44.444;26.006;2024-03-17T07:01:21;48.22;;;30.52;;
46290;SDS011;32023;44.444;26.006;2024-03-17T07:03:58;43.15;;;29.33;;
46290;SDS011;32023;44.444;26.006;2024-03-17T07:06:28;43.05;;;29.17;;
46290;SDS011;32023;44.444;26.006;2024-03-17T07:08:57;45.05;;;28.95;;
46290;SDS011;32023;44.444;26.006;2024-03-17T07:11:26;41.05;;;27.17;;
46290;SDS011;32023;44.444;26.006;2024-03-17T07:14:29;43.28;;;27.98;;
46290;SDS011;32023;44.444;26.006;2024-03-17T07:17:07;42.80;;;26.13;;
46290;SDS011;32023;44.444;26.006;2024-03-17T07:19:37;38.58;;;27.33;;
46290;SDS011;32023;44.444;26.006;2024-03-17T07:22:09;42.65;;;28.80;;
46290;SDS011;32023;44.444;26.006;2024-03-17T07:24:47;45.45;;;30.05;;
46290;SDS011;32023;44.444;26.006;2024-03-17T07:27:38;40.30;;;26.58;;
46290;SDS011;32023;44.444;26.006;2024-03-17T07:32:34;37.22;;;24.55;;
46290;SDS011;32023;44.444;26.006;2024-03-17T07:35:05;40.53;;;24.50;;
46290;SDS011;32023;44.444;26.006;2024-03-17T07:37:32;35.80;;;22.92;;
46290;SDS011;32023;44.444;26.006;2024-03-17T07:40:01;50.88;;;24.88;;
46290;SDS011;32023;44.444;26.006;2024-03-17T07:42:32;37.55;;;23.55;;
46290;SDS011;32023;44.444;26.006;2024-03-17T07:44:59;31.65;;;21.38;;
46290;SDS011;32023;44.444;26.006;2024-03-17T07:47:25;31.77;;;21.23;;
46290;SDS011;32023;44.444;26.006;2024-03-17T07:49:54;31.67;;;20.48;;
46290;SDS011;32023;44.444;26.006;2024-03-17T07:52:28;33.20;;;20.45;;
46290;SDS011;32023;44.444;26.006;2024-03-17T07:54:55;31.10;;;20.30;;
46290;SDS011;32023;44.444;26.006;2024-03-17T07:57:22;28.30;;;19.20;;
46290;SDS011;32023;44.444;26.006;2024-03-17T07:59:51;25.92;;;17.98;;
46290;SDS011;32023;44.444;26.006;2024-03-17T08:02:18;25.35;;;17.38;;
46290;SDS011;32023;44.444;26.006;2024-03-17T08:04:45;27.55;;;17.55;;
46290;SDS011;32023;44.444;26.006;2024-03-17T08:07:12;25.00;;;17.70;;
46290;SDS011;32023;44.444;26.006;2024-03-17T08:09:43;25.85;;;18.55;;
46290;SDS011;32023;44.444;26.006;2024-03-17T08:12:10;24.92;;;16.00;;
46290;SDS011;32023;44.444;26.006;2024-03-17T08:14:36;23.48;;;16.05;;
46290;SDS011;32023;44.444;26.006;2024-03-17T08:17:06;24.50;;;16.83;;
46290;SDS011;32023;44.444;26.006;2024-03-17T08:19:52;23.20;;;16.45;;
46290;SDS011;32023;44.444;26.006;2024-03-17T08:22:28;20.75;;;14.77;;
46290;SDS011;32023;44.444;26.006;2024-03-17T08:25:04;19.52;;;14.60;;
46290;SDS011;32023;44.444;26.006;2024-03-17T08:27:34;21.80;;;14.18;;
46290;SDS011;32023;44.444;26.006;2024-03-17T08:30:00;19.25;;;13.82;;
46290;SDS011;32023;44.444;26.006;2024-03-17T08:32:32;19.55;;;13.90;;
46290;SDS011;32023;44.444;26.006;2024-03-17T08:35:03;19.40;;;13.43;;
46290;SDS011;32023;44.444;26.006;2024-03-17T08:37:43;19.23;;;13.65;;
46290;SDS011;32023;44.444;26.006;2024-03-17T08:40:22;18.88;;;12.85;;
46290;SDS011;32023;44.444;26.006;2024-03-17T08:49:07;18.42;;;12.35;;
46290;SDS011;32023;44.444;26.006;2024-03-17T08:51:46;17.23;;;12.80;;
46290;SDS011;32023;44.444;26.006;2024-03-17T08:54:18;15.88;;;11.95;;
46290;SDS011;32023;44.444;26.006;2024-03-17T08:56:49;17.05;;;13.02;;
46290;SDS011;32023;44.444;26.006;2024-03-17T08:59:21;18.15;;;13.30;;
46290;SDS011;32023;44.444;26.006;2024-03-17T09:01:54;16.05;;;12.40;;
46290;SDS011;32023;44.444;26.006;2024-03-17T09:04:23;15.00;;;11.65;;
46290;SDS011;32023;44.444;26.006;2024-03-17T09:06:54;13.48;;;11.05;;
46290;SDS011;32023;44.444;26.006;2024-03-17T09:09:41;15.65;;;10.77;;
46290;SDS011;32023;44.444;26.006;2024-03-17T09:15:26;19.00;;;10.93;;
46290;SDS011;32023;44.444;26.006;2024-03-17T09:17:59;16.27;;;12.25;;
46290;SDS011;32023;44.444;26.006;2024-03-17T09:20:37;33.40;;;11.25;;
46290;SDS011;32023;44.444;26.006;2024-03-17T09:23:12;17.08;;;9.95;;
46290;SDS011;32023;44.444;26.006;2024-03-17T09:26:21;13.73;;;9.52;;
46290;SDS011;32023;44.444;26.006;2024-03-17T09:29:09;15.55;;;10.63;;
46290;SDS011;32023;44.444;26.006;2024-03-17T09:37:03;14.95;;;11.65;;
46290;SDS011;32023;44.444;26.006;2024-03-17T09:39:34;11.88;;;10.05;;
46290;SDS011;32023;44.444;26.006;2024-03-17T09:42:21;12.27;;;9.75;;
46290;SDS011;32023;44.444;26.006;2024-03-17T09:44:57;12.43;;;10.80;;
46290;SDS011;32023;44.444;26.006;2024-03-17T09:52:57;11.02;;;8.75;;
46290;SDS011;32023;44.444;26.006;2024-03-17T09:55:46;14.15;;;9.52;;
46290;SDS011;32023;44.444;26.006;2024-03-17T09:58:16;11.18;;;9.55;;
46290;SDS011;32023;44.444;26.006;2024-03-17T10:00:45;12.82;;;9.85;;
46290;SDS011;32023;44.444;26.006;2024-03-17T10:06:44;12.43;;;9.15;;
46290;SDS011;32023;44.444;26.006;2024-03-17T10:09:24;13.93;;;9.48;;
46290;SDS011;32023;44.444;26.006;2024-03-17T10:14:28;10.45;;;8.70;;
46290;SDS011;32023;44.444;26.006;2024-03-17T10:17:05;13.20;;;9.20;;
46290;SDS011;32023;44.444;26.006;2024-03-17T10:19:35;9.63;;;8.05;;
46290;SDS011;32023;44.444;26.006;2024-03-17T10:22:04;10.52;;;8.13;;
46290;SDS011;32023;44.444;26.006;2024-03-17T10:24:43;13.40;;;7.70;;
46290;SDS011;32023;44.444;26.006;2024-03-17T10:27:29;11.18;;;8.68;;
46290;SDS011;32023;44.444;26.006;2024-03-17T10:30:00;9.63;;;6.47;;
46290;SDS011;32023;44.444;26.006;2024-03-17T10:32:27;10.93;;;6.68;;
46290;SDS011;32023;44.444;26.006;2024-03-17T10:34:57;7.97;;;7.28;;
46290;SDS011;32023;44.444;26.006;2024-03-17T10:37:29;8.10;;;6.55;;
46290;SDS011;32023;44.444;26.006;2024-03-17T10:40:16;7.07;;;6.40;;
46290;SDS011;32023;44.444;26.006;2024-03-17T10:42:49;4.93;;;4.43;;
46290;SDS011;32023;44.444;26.006;2024-03-17T10:45:21;4.40;;;4.00;;
46290;SDS011;32023;44.444;26.006;2024-03-17T10:47:56;9.38;;;5.53;;
46290;SDS011;32023;44.444;26.006;2024-03-17T10:50:55;9.48;;;6.68;;
46290;SDS011;32023;44.444;26.006;2024-03-17T10:53:32;8.57;;;6.03;;
46290;SDS011;32023;44.444;26.006;2024-03-17T10:56:10;7.75;;;5.68;;
46290;SDS011;32023;44.444;26.006;2024-03-17T10:58:56;5.20;;;4.40;;
46290;SDS011;32023;44.444;26.006;2024-03-17T11:01:37;8.60;;;6.15;;
46290;SDS011;32023;44.444;26.006;2024-03-17T11:04:19;5.43;;;4.97;;
46290;SDS011;32023;44.444;26.006;2024-03-17T11:06:46;6.72;;;6.05;;
46290;SDS011;32023;44.444;26.006;2024-03-17T11:09:18;6.20;;;5.70;;
46290;SDS011;32023;44.444;26.006;2024-03-17T11:11:45;7.18;;;5.82;;
46290;SDS011;32023;44.444;26.006;2024-03-17T11:14:18;6.53;;;5.78;;
46290;SDS011;32023;44.444;26.006;2024-03-17T11:16:49;8.02;;;5.70;;
46290;SDS011;32023;44.444;26.006;2024-03-17T11:19:16;6.20;;;5.60;;
46290;SDS011;32023;44.444;26.006;2024-03-17T11:21:45;7.45;;;6.35;;
46290;SDS011;32023;44.444;26.006;2024-03-17T11:24:23;9.63;;;6.10;;
46290;SDS011;32023;44.444;26.006;2024-03-17T11:26:59;6.15;;;5.55;;
46290;SDS011;32023;44.444;26.006;2024-03-17T11:41:38;8.02;;;6.72;;
46290;SDS011;32023;44.444;26.006;2024-03-17T11:46:57;8.23;;;6.82;;
46290;SDS011;32023;44.444;26.006;2024-03-17T11:49:27;7.78;;;6.40;;
46290;SDS011;32023;44.444;26.006;2024-03-17T11:51:58;8.40;;;6.72;;
46290;SDS011;32023;44.444;26.006;2024-03-17T11:54:33;32.80;;;20.75;;
46290;SDS011;32023;44.444;26.006;2024-03-17T11:57:05;10.68;;;9.25;;
46290;SDS011;32023;44.444;26.006;2024-03-17T11:59:35;8.95;;;5.97;;
46290;SDS011;32023;44.444;26.006;2024-03-17T12:02:07;7.70;;;6.03;;
46290;SDS011;32023;44.444;26.006;2024-03-17T12:04:56;6.00;;;5.40;;
46290;SDS011;32023;44.444;26.006;2024-03-17T12:07:26;7.25;;;5.50;;
46290;SDS011;32023;44.444;26.006;2024-03-17T12:09:55;7.38;;;5.70;;
46290;SDS011;32023;44.444;26.006;2024-03-17T12:12:26;7.03;;;5.57;;
46290;SDS011;32023;44.444;26.006;2024-03-17T12:17:41;7.18;;;5.18;;
46290;SDS011;32023;44.444;26.006;2024-03-17T12:20:17;7.50;;;5.50;;
46290;SDS011;32023;44.444;26.006;2024-03-17T12:22:48;5.30;;;4.80;;
46290;SDS011;32023;44.444;26.006;2024-03-17T12:25:17;6.72;;;5.78;;
46290;SDS011;32023;44.444;26.006;2024-03-17T12:27:45;7.82;;;5.60;;
46290;SDS011;32023;44.444;26.006;2024-03-17T12:30:13;8.85;;;6.90;;
46290;SDS011;32023;44.444;26.006;2024-03-17T12:32:47;8.40;;;6.47;;
46290;SDS011;32023;44.444;26.006;2024-03-17T12:35:15;12.80;;;5.43;;
46290;SDS011;32023;44.444;26.006;2024-03-17T12:37:47;6.32;;;5.20;;
46290;SDS011;32023;44.444;26.006;2024-03-17T12:40:31;34.00;;;26.13;;
46290;SDS011;32023;44.444;26.006;2024-03-17T12:43:11;38.25;;;28.38;;
46290;SDS011;32023;44.444;26.006;2024-03-17T12:45:56;8.15;;;6.38;;
46290;SDS011;32023;44.444;26.006;2024-03-17T12:48:28;9.90;;;7.25;;
46290;SDS011;32023;44.444;26.006;2024-03-17T12:51:12;6.65;;;5.47;;
46290;SDS011;32023;44.444;26.006;2024-03-17T12:53:39;9.82;;;6.72;;
46290;SDS011;32023;44.444;26.006;2024-03-17T12:56:08;17.90;;;12.75;;
46290;SDS011;32023;44.444;26.006;2024-03-17T12:58:53;9.30;;;5.25;;
46290;SDS011;32023;44.444;26.006;2024-03-17T13:02:00;19.20;;;9.60;;
46290;SDS011;32023;44.444;26.006;2024-03-17T13:04:27;7.85;;;5.57;;
46290;SDS011;32023;44.444;26.006;2024-03-17T13:06:53;17.00;;;13.27;;
46290;SDS011;32023;44.444;26.006;2024-03-17T13:09:25;7.75;;;5.65;;
46290;SDS011;32023;44.444;26.006;2024-03-17T13:12:02;10.80;;;8.00;;
46290;SDS011;32023;44.444;26.006;2024-03-17T13:14:46;5.50;;;4.88;;
46290;SDS011;32023;44.444;26.006;2024-03-17T13:17:18;8.85;;;5.32;;
46290;SDS011;32023;44.444;26.006;2024-03-17T13:19:47;7.45;;;5.78;;
46290;SDS011;32023;44.444;26.006;2024-03-17T13:22:14;6.38;;;5.50;;
46290;SDS011;32023;44.444;26.006;2024-03-17T13:25:09;8.20;;;5.53;;
46290;SDS011;32023;44.444;26.006;2024-03-17T13:27:54;12.63;;;10.55;;
46290;SDS011;32023;44.444;26.006;2024-03-17T13:30:25;86.70;;;58.47;;
46290;SDS011;32023;44.444;26.006;2024-03-17T13:33:05;8.13;;;5.55;;
46290;SDS011;32023;44.444;26.006;2024-03-17T13:38:24;22.88;;;16.08;;
46290;SDS011;32023;44.444;26.006;2024-03-17T13:41:03;31.40;;;19.55;;
46290;SDS011;32023;44.444;26.006;2024-03-17T13:43:37;16.25;;;11.55;;
46290;SDS011;32023;44.444;26.006;2024-03-17T13:46:08;8.23;;;6.40;;
46290;SDS011;32023;44.444;26.006;2024-03-17T13:48:35;45.42;;;27.45;;
46290;SDS011;32023;44.444;26.006;2024-03-17T13:51:07;22.20;;;15.00;;
46290;SDS011;32023;44.444;26.006;2024-03-17T13:53:34;19.58;;;13.02;;
46290;SDS011;32023;44.444;26.006;2024-03-17T13:56:14;10.82;;;6.65;;
46290;SDS011;32023;44.444;26.006;2024-03-17T13:58:49;13.98;;;7.28;;
46290;SDS011;32023;44.444;26.006;2024-03-17T14:01:19;12.90;;;9.32;;
46290;SDS011;32023;44.444;26.006;2024-03-17T14:03:54;7.60;;;5.13;;
46290;SDS011;32023;44.444;26.006;2024-03-17T14:06:24;9.77;;;5.57;;
46290;SDS011;32023;44.444;26.006;2024-03-17T14:08:54;6.45;;;5.28;;
46290;SDS011;32023;44.444;26.006;2024-03-17T14:11:23;6.72;;;4.28;;
46290;SDS011;32023;44.444;26.006;2024-03-17T14:13:50;5.40;;;3.80;;
46290;SDS011;32023;44.444;26.006;2024-03-17T14:16:22;5.57;;;4.15;;
46290;SDS011;32023;44.444;26.006;2024-03-17T14:18:51;5.55;;;4.18;;
46290;SDS011;32023;44.444;26.006;2024-03-17T14:21:21;4.65;;;3.92;;
46290;SDS011;32023;44.444;26.006;2024-03-17T14:23:54;5.35;;;3.65;;
46290;SDS011;32023;44.444;26.006;2024-03-17T14:26:24;6.38;;;3.55;;
46290;SDS011;32023;44.444;26.006;2024-03-17T14:29:04;6.10;;;3.95;;
46290;SDS011;32023;44.444;26.006;2024-03-17T14:31:35;5.65;;;4.43;;
46290;SDS011;32023;44.444;26.006;2024-03-17T14:34:07;5.25;;;4.07;;
46290;SDS011;32023;44.444;26.006;2024-03-17T14:36:35;7.82;;;5.07;;
46290;SDS011;32023;44.444;26.006;2024-03-17T14:39:02;7.50;;;5.63;;
46290;SDS011;32023;44.444;26.006;2024-03-17T14:41:32;5.65;;;4.47;;
46290;SDS011;32023;44.444;26.006;2024-03-17T14:43:59;8.38;;;5.90;;
46290;SDS011;32023;44.444;26.006;2024-03-17T14:46:30;7.45;;;6.22;;
46290;SDS011;32023;44.444;26.006;2024-03-17T14:49:00;10.73;;;6.30;;
46290;SDS011;32023;44.444;26.006;2024-03-17T14:51:35;10.82;;;6.60;;
46290;SDS011;32023;44.444;26.006;2024-03-17T14:54:04;12.77;;;6.65;;
46290;SDS011;32023;44.444;26.006;2024-03-17T14:56:32;7.95;;;6.55;;
46290;SDS011;32023;44.444;26.006;2024-03-17T14:58:59;12.85;;;6.82;;
46290;SDS011;32023;44.444;26.006;2024-03-17T15:01:28;10.77;;;6.50;;
46290;SDS011;32023;44.444;26.006;2024-03-17T15:03:55;11.45;;;6.38;;
46290;SDS011;32023;44.444;26.006;2024-03-17T15:06:22;10.10;;;7.30;;
46290;SDS011;32023;44.444;26.006;2024-03-17T15:08:49;7.60;;;6.22;;
46290;SDS011;32023;44.444;26.006;2024-03-17T15:11:19;9.35;;;6.68;;
46290;SDS011;32023;44.444;26.006;2024-03-17T15:13:54;11.07;;;7.18;;
46290;SDS011;32023;44.444;26.006;2024-03-17T15:19:38;17.98;;;6.72;;
46290;SDS011;32023;44.444;26.006;2024-03-17T15:22:12;9.77;;;7.28;;
46290;SDS011;32023;44.444;26.006;2024-03-17T15:30:47;13.10;;;6.78;;
46290;SDS011;32023;44.444;26.006;2024-03-17T15:36:32;10.50;;;7.35;;
46290;SDS011;32023;44.444;26.006;2024-03-17T15:41:40;9.90;;;7.18;;
46290;SDS011;32023;44.444;26.006;2024-03-17T15:44:07;10.95;;;8.18;;
46290;SDS011;32023;44.444;26.006;2024-03-17T15:46:35;9.80;;;6.57;;
46290;SDS011;32023;44.444;26.006;2024-03-17T15:49:02;12.95;;;7.53;;
46290;SDS011;32023;44.444;26.006;2024-03-17T15:51:32;10.85;;;7.93;;
46290;SDS011;32023;44.444;26.006;2024-03-17T15:53:58;9.48;;;6.90;;
46290;SDS011;32023;44.444;26.006;2024-03-17T15:56:25;8.80;;;7.45;;
46290;SDS011;32023;44.444;26.006;2024-03-17T15:58:52;9.77;;;7.00;;
46290;SDS011;32023;44.444;26.006;2024-03-17T16:01:18;14.40;;;7.72;;
46290;SDS011;32023;44.444;26.006;2024-03-17T16:03:51;11.25;;;7.53;;
46290;SDS011;32023;44.444;26.006;2024-03-17T16:06:27;11.52;;;8.77;;
46290;SDS011;32023;44.444;26.006;2024-03-17T16:12:03;12.32;;;7.90;;
46290;SDS011;32023;44.444;26.006;2024-03-17T16:14:34;12.60;;;8.27;;
46290;SDS011;32023;44.444;26.006;2024-03-17T16:17:04;10.43;;;7.13;;
46290;SDS011;32023;44.444;26.006;2024-03-17T16:19:34;10.82;;;8.07;;
46290;SDS011;32023;44.444;26.006;2024-03-17T16:22:05;11.30;;;8.23;;
46290;SDS011;32023;44.444;26.006;2024-03-17T16:24:38;13.80;;;8.30;;
46290;SDS011;32023;44.444;26.006;2024-03-17T16:27:13;14.43;;;7.45;;
46290;SDS011;32023;44.444;26.006;2024-03-17T16:29:39;12.25;;;8.13;;
46290;SDS011;32023;44.444;26.006;2024-03-17T16:32:09;14.18;;;8.60;;
46290;SDS011;32023;44.444;26.006;2024-03-17T16:34:36;12.13;;;8.85;;
46290;SDS011;32023;44.444;26.006;2024-03-17T16:37:08;12.35;;;8.45;;